Time;durP1;ratioP1;P1;durP2;ratioP2;P2;SDS_P1;SDS_P2;PMS_P1;PMS_P2;Temp;Humidity;BMP_temperature;BMP_pressure;BME280_temperature;BME280_humidity;BME280_pressure;Samples;Min_cycle;Max_cycle;Signal;HPM_P1;HPM_P2
2022/11/11 00:01:13;;;;;;;8.32;7.72;;;;;;;;;;5012271;28;20586;-59
2022/11/11 00:03:39;;;;;;;8.63;8.02;;;;;;;;;;5009852;28;20127;-59
2022/11/11 00:06:08;;;;;;;9.63;8.93;;;;;;;;;;5030339;28;20026;-59
2022/11/11 00:08:34;;;;;;;8.77;8.18;;;;;;;;;;5009563;28;20379;-59
2022/11/11 00:11:01;;;;;;;8.93;8.32;;;;;;;;;;5012104;28;20134;-59
2022/11/11 00:13:27;;;;;;;9.30;8.70;;;;;;;;;;5010322;28;20026;-59
2022/11/11 00:15:53;;;;;;;9.48;8.73;;;;;;;;;;5013961;28;20421;-59
2022/11/11 00:26:29;;;;;;;8.80;8.20;;;;;;;;;;5009790;28;20064;-59
2022/11/11 00:28:55;;;;;;;8.38;7.88;;;;;;;;;;5011437;28;20026;-59
2022/11/11 00:31:20;;;;;;;9.50;8.90;;;;;;;;;;5008741;28;20033;-59
2022/11/11 00:33:45;;;;;;;9.57;8.98;;;;;;;;;;5010218;28;20041;-59
2022/11/11 00:36:11;;;;;;;8.93;8.32;;;;;;;;;;5012979;28;20543;-59
2022/11/11 00:38:45;;;;;;;8.38;7.85;;;;;;;;;;5006314;28;20439;-60
2022/11/11 00:41:17;;;;;;;9.18;8.57;;;;;;;;;;5013880;28;20464;-59
2022/11/11 00:43:43;;;;;;;9.70;9.10;;;;;;;;;;5014999;28;20037;-59
2022/11/11 00:51:38;;;;;;;8.75;8.18;;;;;;;;;;5013185;28;20069;-59
2022/11/11 00:54:04;;;;;;;10.07;9.38;;;;;;;;;;5014366;28;20101;-59
2022/11/11 00:56:29;;;;;;;10.25;9.52;;;;;;;;;;5015081;28;20588;-59
2022/11/11 00:58:55;;;;;;;9.27;8.68;;;;;;;;;;5014537;28;20543;-59
2022/11/11 01:01:20;;;;;;;11.25;10.55;;;;;;;;;;5016969;28;20253;-59
2022/11/11 01:03:45;;;;;;;9.52;8.93;;;;;;;;;;5018271;28;20052;-59
2022/11/11 01:06:12;;;;;;;9.85;8.98;;;;;;;;;;5014779;28;20061;-59
2022/11/11 01:08:38;;;;;;;9.63;9.02;;;;;;;;;;5011518;28;20033;-59
2022/11/11 01:11:03;;;;;;;9.27;8.68;;;;;;;;;;5014733;28;20037;-59
2022/11/11 01:13:31;;;;;;;10.45;9.77;;;;;;;;;;5011888;28;20037;-59
2022/11/11 01:16:04;;;;;;;9.23;8.63;;;;;;;;;;5015005;28;20488;-59
2022/11/11 01:18:30;;;;;;;10.50;9.80;;;;;;;;;;5011593;28;20033;-59
2022/11/11 01:21:03;;;;;;;9.95;9.35;;;;;;;;;;5012446;28;20029;-59
2022/11/11 01:23:30;;;;;;;10.45;9.75;;;;;;;;;;5014488;28;20033;-60
2022/11/11 01:26:12;;;;;;;9.98;9.38;;;;;;;;;;5014266;28;20029;-59
2022/11/11 01:28:37;;;;;;;11.05;10.25;;;;;;;;;;5015750;28;20026;-60
2022/11/11 01:31:06;;;;;;;10.73;10.02;;;;;;;;;;5013210;28;20049;-59
2022/11/11 01:33:32;;;;;;;11.23;10.23;;;;;;;;;;5012022;28;20033;-59
2022/11/11 01:36:10;;;;;;;10.18;9.48;;;;;;;;;;5011515;28;20429;-59
2022/11/11 01:38:36;;;;;;;12.13;11.23;;;;;;;;;;5016344;28;20033;-59
2022/11/11 01:41:31;;;;;;;10.25;9.65;;;;;;;;;;5010767;28;20117;-59
2022/11/11 01:43:49;;;;;;;11.57;10.75;;;;;;;;;;5013425;28;20044;-59
2022/11/11 01:46:27;;;;;;;10.02;9.43;;;;;;;;;;5012893;28;20301;-59
2022/11/11 01:51:47;;;;;;;11.02;10.32;;;;;;;;;;5013040;28;20053;-59
2022/11/11 01:54:27;;;;;;;11.65;10.60;;;;;;;;;;5012988;28;20029;-59
2022/11/11 01:57:02;;;;;;;10.85;10.07;;;;;;;;;;5013926;28;20044;-59
2022/11/11 01:59:30;;;;;;;9.88;9.15;;;;;;;;;;5013060;28;20084;-59
2022/11/11 02:01:56;;;;;;;10.52;9.82;;;;;;;;;;5011842;28;20425;-59
2022/11/11 02:07:09;;;;;;;11.57;10.52;;;;;;;;;;5017507;28;20136;-59
2022/11/11 02:09:37;;;;;;;10.60;9.90;;;;;;;;;;5010650;28;20132;-59
2022/11/11 02:14:54;;;;;;;9.18;8.57;;;;;;;;;;5011951;28;20036;-59
2022/11/11 02:17:19;;;;;;;9.02;8.43;;;;;;;;;;5011440;28;20037;-59
2022/11/11 02:20:07;;;;;;;9.68;9.07;;;;;;;;;;5014993;28;20364;-59
2022/11/11 02:22:40;;;;;;;10.52;9.52;;;;;;;;;;5011899;28;20458;-59
2022/11/11 02:25:08;;;;;;;9.57;8.98;;;;;;;;;;5013905;28;20492;-60
2022/11/11 02:27:37;;;;;;;9.82;9.23;;;;;;;;;;5011921;28;20061;-59
2022/11/11 02:30:05;;;;;;;10.27;9.60;;;;;;;;;;5010917;28;20176;-59
2022/11/11 02:32:30;;;;;;;28.10;13.35;;;;;;;;;;5012551;28;20120;-59
2022/11/11 02:34:56;;;;;;;12.68;11.48;;;;;;;;;;5011996;28;20113;-59
2022/11/11 02:37:25;;;;;;;10.70;9.90;;;;;;;;;;5012735;28;20045;-59
2022/11/11 02:39:56;;;;;;;10.43;9.73;;;;;;;;;;5012008;28;20033;-59
2022/11/11 02:42:22;;;;;;;;;;;;;;;;;;5016965;28;20029;-60
2022/11/11 02:44:48;;;;;;;11.32;10.20;;;;;;;;;;5017786;28;19978;-60
2022/11/11 02:47:13;;;;;;;10.52;9.60;;;;;;;;;;5011233;28;20367;-59
2022/11/11 02:49:38;;;;;;;10.68;9.75;;;;;;;;;;5012845;28;20045;-59
2022/11/11 02:52:04;;;;;;;11.68;10.57;;;;;;;;;;5010479;28;20030;-60
2022/11/11 02:54:29;;;;;;;11.63;10.85;;;;;;;;;;5014403;28;20037;-59
2022/11/11 02:57:07;;;;;;;12.43;11.52;;;;;;;;;;5012343;28;20367;-60
2022/11/11 02:59:33;;;;;;;11.98;11.00;;;;;;;;;;5010527;28;20026;-60
2022/11/11 03:01:58;;;;;;;11.07;10.27;;;;;;;;;;5011480;28;20029;-60
2022/11/11 03:04:24;;;;;;;12.00;11.20;;;;;;;;;;5013194;28;20030;-60
2022/11/11 03:06:49;;;;;;;9.73;9.13;;;;;;;;;;5014905;28;20025;-60
2022/11/11 03:09:15;;;;;;;11.07;10.32;;;;;;;;;;5012472;28;20055;-60
2022/11/11 03:11:40;;;;;;;12.07;11.18;;;;;;;;;;5013025;28;20029;-60
2022/11/11 03:14:07;;;;;;;13.15;11.90;;;;;;;;;;5013795;28;20511;-60
2022/11/11 03:19:17;;;;;;;11.30;10.50;;;;;;;;;;5013059;28;20123;-62
2022/11/11 03:21:42;;;;;;;11.13;10.40;;;;;;;;;;5010911;28;20466;-60
2022/11/11 03:24:08;;;;;;;11.88;11.00;;;;;;;;;;5014976;28;20030;-60
2022/11/11 03:26:33;;;;;;;12.50;11.60;;;;;;;;;;5019896;28;20164;-60
2022/11/11 03:28:58;;;;;;;11.13;10.43;;;;;;;;;;5010730;28;20108;-60
2022/11/11 03:31:24;;;;;;;11.18;10.38;;;;;;;;;;5014531;28;20033;-60
2022/11/11 03:33:49;;;;;;;11.57;10.68;;;;;;;;;;5011944;28;20030;-60
2022/11/11 03:36:14;;;;;;;11.20;10.43;;;;;;;;;;5009992;28;20108;-60
2022/11/11 03:38:40;;;;;;;10.70;9.80;;;;;;;;;;5013016;28;20363;-60
2022/11/11 03:41:05;;;;;;;11.25;10.35;;;;;;;;;;5015123;28;20025;-60
2022/11/11 03:43:33;;;;;;;9.38;8.77;;;;;;;;;;5012690;28;20450;-59
2022/11/11 03:46:00;;;;;;;9.35;8.65;;;;;;;;;;5011516;28;20333;-60
2022/11/11 03:48:28;;;;;;;8.90;8.25;;;;;;;;;;5011674;28;20596;-60
2022/11/11 03:50:54;;;;;;;9.90;9.25;;;;;;;;;;5011609;28;20485;-60
2022/11/11 03:53:21;;;;;;;9.40;8.80;;;;;;;;;;5013240;28;20213;-60
2022/11/11 03:55:47;;;;;;;10.32;9.63;;;;;;;;;;5015235;28;20125;-60
2022/11/11 03:58:13;;;;;;;10.23;9.43;;;;;;;;;;5012804;28;20103;-60
2022/11/11 04:00:39;;;;;;;10.25;9.52;;;;;;;;;;5011389;28;20530;-60
2022/11/11 04:11:28;;;;;;;10.68;9.90;;;;;;;;;;5012723;28;20115;-60
2022/11/11 04:16:41;;;;;;;10.50;9.70;;;;;;;;;;5016452;28;20029;-60
2022/11/11 04:21:50;;;;;;;8.70;8.10;;;;;;;;;;5014908;28;20029;-59
2022/11/11 04:27:07;;;;;;;10.38;9.68;;;;;;;;;;5013126;28;20026;-60
2022/11/11 04:29:33;;;;;;;10.68;9.90;;;;;;;;;;5016689;28;20705;-60
2022/11/11 04:34:50;;;;;;;10.35;9.55;;;;;;;;;;5012978;28;20161;-59
2022/11/11 04:37:17;;;;;;;9.73;9.05;;;;;;;;;;5014231;28;20125;-60
2022/11/11 04:42:27;;;;;;;9.75;9.05;;;;;;;;;;5017195;28;20045;-60
2022/11/11 04:47:37;;;;;;;10.73;9.85;;;;;;;;;;5016983;28;20100;-60
2022/11/11 04:50:03;;;;;;;10.32;9.63;;;;;;;;;;5013450;28;20523;-60
2022/11/11 04:52:29;;;;;;;10.98;10.25;;;;;;;;;;5017351;28;20124;-60
2022/11/11 04:57:44;;;;;;;10.68;9.82;;;;;;;;;;5016068;28;20034;-59
2022/11/11 05:00:15;;;;;;;10.15;9.52;;;;;;;;;;5016348;28;20109;-59
2022/11/11 05:05:25;;;;;;;9.55;8.88;;;;;;;;;;5015167;28;20044;-59
2022/11/11 05:10:35;;;;;;;9.95;9.25;;;;;;;;;;5013985;28;20455;-59
2022/11/11 05:21:20;;;;;;;9.60;8.85;;;;;;;;;;5016009;28;20026;-59
2022/11/11 05:26:30;;;;;;;10.18;9.48;;;;;;;;;;5013128;28;20040;-59
2022/11/11 05:28:55;;;;;;;9.73;9.02;;;;;;;;;;5013024;28;20030;-59
2022/11/11 05:31:21;;;;;;;10.18;9.48;;;;;;;;;;5010324;28;20140;-59
2022/11/11 05:33:46;;;;;;;8.23;7.72;;;;;;;;;;5012839;28;20043;-59
2022/11/11 05:36:12;;;;;;;9.43;8.82;;;;;;;;;;5013891;28;20029;-59
2022/11/11 05:38:37;;;;;;;8.93;8.32;;;;;;;;;;5015453;28;20055;-59
2022/11/11 05:41:02;;;;;;;8.57;7.97;;;;;;;;;;5004345;28;20495;-59
2022/11/11 05:43:28;;;;;;;9.30;8.70;;;;;;;;;;5010998;28;20442;-59
2022/11/11 05:45:53;;;;;;;9.30;8.60;;;;;;;;;;5014783;28;20025;-59
2022/11/11 05:48:18;;;;;;;9.48;8.68;;;;;;;;;;5014475;28;20090;-59
2022/11/11 05:50:44;;;;;;;8.20;7.70;;;;;;;;;;5015869;28;20049;-59
2022/11/11 05:53:09;;;;;;;9.30;8.70;;;;;;;;;;5014827;28;20029;-60
2022/11/11 05:55:34;;;;;;;8.60;8.00;;;;;;;;;;5014770;28;20041;-59
2022/11/11 05:58:00;;;;;;;8.02;7.53;;;;;;;;;;5014488;28;20542;-59
2022/11/11 06:00:25;;;;;;;9.15;8.55;;;;;;;;;;5014217;28;20036;-60
2022/11/11 06:02:50;;;;;;;9.55;8.85;;;;;;;;;;5011026;28;20455;-61
2022/11/11 06:05:16;;;;;;;8.73;8.13;;;;;;;;;;5014876;28;20026;-60
2022/11/11 06:07:41;;;;;;;9.48;8.68;;;;;;;;;;5016201;28;20025;-60
2022/11/11 06:13:12;;;;;;;8.63;8.02;;;;;;;;;;5013547;28;20045;-59
2022/11/11 06:15:38;;;;;;;8.82;8.23;;;;;;;;;;5015911;28;20038;-62
2022/11/11 06:18:05;;;;;;;8.43;7.82;;;;;;;;;;5014155;28;20026;-63
2022/11/11 06:20:31;;;;;;;9.35;8.75;;;;;;;;;;5012335;28;20147;-68
2022/11/11 06:22:56;;;;;;;8.40;7.90;;;;;;;;;;5017990;28;20057;-63
2022/11/11 06:28:15;;;;;;;9.55;8.85;;;;;;;;;;5011448;28;20355;-65
2022/11/11 06:30:41;;;;;;;9.18;8.55;;;;;;;;;;5009123;28;20046;-63
2022/11/11 06:33:07;;;;;;;8.85;8.25;;;;;;;;;;5015190;28;20531;-64
2022/11/11 06:35:37;;;;;;;8.80;8.20;;;;;;;;;;5012022;28;20105;-65
2022/11/11 06:38:03;;;;;;;9.07;8.43;;;;;;;;;;5012225;28;20041;-65
2022/11/11 06:40:30;;;;;;;8.88;8.27;;;;;;;;;;5012448;28;20048;-65
2022/11/11 06:42:56;;;;;;;9.05;8.45;;;;;;;;;;5011324;28;20033;-64
2022/11/11 06:45:26;;;;;;;8.65;8.13;;;;;;;;;;5012673;28;20482;-64
2022/11/11 06:47:51;;;;;;;8.88;8.27;;;;;;;;;;5009525;28;20459;-64
2022/11/11 06:50:18;;;;;;;9.68;8.93;;;;;;;;;;5012712;28;20083;-64
2022/11/11 06:52:44;;;;;;;8.80;8.20;;;;;;;;;;5010715;28;20030;-64
2022/11/11 06:55:09;;;;;;;9.35;8.75;;;;;;;;;;5010128;28;20037;-63
2022/11/11 06:57:35;;;;;;;8.40;7.82;;;;;;;;;;5012122;28;20033;-64
2022/11/11 07:00:01;;;;;;;9.52;8.73;;;;;;;;;;5008881;28;20115;-64
2022/11/11 07:02:26;;;;;;;8.00;7.50;;;;;;;;;;5008992;28;20606;-65
2022/11/11 07:04:51;;;;;;;9.65;8.82;;;;;;;;;;5009994;28;20068;-64
2022/11/11 07:07:17;;;;;;;10.52;9.80;;;;;;;;;;5011326;28;20109;-63
2022/11/11 07:09:42;;;;;;;10.10;9.40;;;;;;;;;;5014258;28;20356;-64
2022/11/11 07:12:08;;;;;;;8.68;8.07;;;;;;;;;;5012283;28;20034;-66
2022/11/11 07:14:33;;;;;;;9.43;8.82;;;;;;;;;;5011500;28;20038;-63
2022/11/11 07:16:59;;;;;;;8.70;8.10;;;;;;;;;;5015047;28;20034;-63
2022/11/11 07:19:24;;;;;;;8.95;8.35;;;;;;;;;;5012743;28;20597;-63
2022/11/11 07:21:50;;;;;;;10.32;9.63;;;;;;;;;;5009718;28;20557;-63
2022/11/11 07:24:15;;;;;;;9.05;8.45;;;;;;;;;;5019396;28;20029;-64
2022/11/11 07:26:41;;;;;;;9.93;9.15;;;;;;;;;;5010423;28;20125;-63
2022/11/11 07:29:06;;;;;;;9.70;8.90;;;;;;;;;;5012015;28;20037;-63
2022/11/11 07:31:32;;;;;;;9.57;8.95;;;;;;;;;;5009712;28;20030;-62
2022/11/11 07:33:57;;;;;;;9.35;8.75;;;;;;;;;;5011864;28;20563;-63
2022/11/11 07:36:22;;;;;;;8.63;8.02;;;;;;;;;;5012615;28;20344;-63
2022/11/11 07:38:48;;;;;;;8.60;8.02;;;;;;;;;;5009693;28;20029;-63
2022/11/11 07:41:13;;;;;;;9.57;8.98;;;;;;;;;;5011054;28;20029;-63
2022/11/11 07:43:39;;;;;;;9.23;8.63;;;;;;;;;;5010776;28;20021;-62
2022/11/11 07:46:04;;;;;;;9.25;8.65;;;;;;;;;;5010068;28;20598;-63
2022/11/11 07:48:29;;;;;;;10.13;9.43;;;;;;;;;;5011757;28;20038;-63
2022/11/11 07:50:55;;;;;;;9.07;8.48;;;;;;;;;;5016331;28;20033;-63
2022/11/11 07:53:21;;;;;;;9.52;8.93;;;;;;;;;;5015307;28;20042;-63
2022/11/11 07:55:46;;;;;;;8.93;8.27;;;;;;;;;;5017417;28;20119;-63
2022/11/11 07:58:12;;;;;;;9.25;8.60;;;;;;;;;;5017703;28;20065;-64
2022/11/11 08:00:37;;;;;;;8.82;8.23;;;;;;;;;;5012230;28;20034;-63
2022/11/11 08:03:03;;;;;;;9.60;8.90;;;;;;;;;;5015424;28;20025;-62
2022/11/11 08:05:28;;;;;;;9.50;8.90;;;;;;;;;;5015755;28;20033;-63
2022/11/11 08:07:53;;;;;;;9.88;9.27;;;;;;;;;;5016372;28;20033;-63
2022/11/11 08:10:19;;;;;;;9.98;9.27;;;;;;;;;;5016162;28;20435;-62
2022/11/11 08:15:28;;;;;;;11.05;10.25;;;;;;;;;;5012633;28;20029;-63
2022/11/11 08:17:53;;;;;;;8.57;7.97;;;;;;;;;;5016128;28;20460;-63
2022/11/11 08:20:19;;;;;;;9.85;9.18;;;;;;;;;;5013146;28;20406;-63
2022/11/11 08:22:44;;;;;;;8.73;8.10;;;;;;;;;;5013903;28;20195;-63
2022/11/11 08:25:14;;;;;;;9.52;8.93;;;;;;;;;;5012982;28;20526;-63
2022/11/11 08:27:40;;;;;;;10.02;9.20;;;;;;;;;;5015517;28;20340;-63
2022/11/11 08:30:07;;;;;;;9.10;8.50;;;;;;;;;;5016625;28;20036;-62
2022/11/11 08:32:32;;;;;;;8.65;8.05;;;;;;;;;;5015149;28;20030;-63
2022/11/11 08:34:58;;;;;;;10.50;9.80;;;;;;;;;;5017676;28;20036;-63
2022/11/11 08:37:23;;;;;;;10.25;9.35;;;;;;;;;;5012684;28;20029;-63
2022/11/11 08:39:48;;;;;;;11.15;10.35;;;;;;;;;;5014375;28;20030;-63
2022/11/11 08:42:14;;;;;;;9.30;8.70;;;;;;;;;;5011917;28;20458;-62
2022/11/11 08:44:39;;;;;;;9.85;9.15;;;;;;;;;;5013544;28;20038;-62
2022/11/11 08:47:05;;;;;;;9.23;8.60;;;;;;;;;;5015364;28;20558;-62
2022/11/11 08:49:30;;;;;;;9.82;9.13;;;;;;;;;;5012612;28;20503;-62
2022/11/11 08:51:55;;;;;;;10.13;9.43;;;;;;;;;;5016350;28;20396;-63
2022/11/11 08:54:21;;;;;;;10.80;10.05;;;;;;;;;;5012271;28;20463;-63
2022/11/11 08:56:46;;;;;;;10.02;9.32;;;;;;;;;;5015163;28;20041;-63
2022/11/11 08:59:11;;;;;;;11.77;10.77;;;;;;;;;;5013067;28;20328;-63
2022/11/11 09:01:37;;;;;;;10.85;9.88;;;;;;;;;;5011920;28;20737;-63
2022/11/11 09:04:02;;;;;;;10.00;9.20;;;;;;;;;;5013240;28;20034;-63
2022/11/11 09:06:28;;;;;;;10.60;9.85;;;;;;;;;;5016076;28;20087;-63
2022/11/11 09:08:53;;;;;;;10.05;9.35;;;;;;;;;;5015062;28;20021;-63
2022/11/11 09:11:19;;;;;;;10.27;9.57;;;;;;;;;;5011171;28;20376;-63
2022/11/11 09:13:46;;;;;;;10.07;9.38;;;;;;;;;;5014618;28;20347;-63
2022/11/11 09:16:11;;;;;;;10.07;9.38;;;;;;;;;;5012699;28;20037;-63
2022/11/11 09:18:37;;;;;;;9.60;8.95;;;;;;;;;;5011089;28;20395;-63
2022/11/11 09:21:02;;;;;;;10.07;9.38;;;;;;;;;;5012817;28;20650;-63
2022/11/11 09:23:28;;;;;;;11.38;10.43;;;;;;;;;;5013476;28;20029;-63
2022/11/11 09:25:53;;;;;;;9.32;8.63;;;;;;;;;;5013464;28;20044;-62
2022/11/11 09:28:19;;;;;;;10.68;9.88;;;;;;;;;;5015817;28;20060;-63
2022/11/11 09:30:45;;;;;;;11.63;10.82;;;;;;;;;;5013342;28;20095;-64
2022/11/11 09:33:11;;;;;;;11.85;10.90;;;;;;;;;;5014185;28;20256;-64
2022/11/11 09:35:37;;;;;;;9.30;8.70;;;;;;;;;;5015428;28;20033;-63
2022/11/11 09:38:03;;;;;;;10.00;9.30;;;;;;;;;;5013221;28;20041;-64
2022/11/11 09:40:40;;;;;;;11.45;10.50;;;;;;;;;;5014624;28;20029;-64
2022/11/11 09:43:37;;;;;;;10.23;9.48;;;;;;;;;;5015895;28;20585;-63
2022/11/11 09:46:24;;;;;;;11.73;10.63;;;;;;;;;;5012964;28;20036;-63
2022/11/11 09:49:20;;;;;;;11.13;10.32;;;;;;;;;;5014694;28;20037;-64
2022/11/11 09:51:59;;;;;;;12.35;11.30;;;;;;;;;;5013621;28;20124;-63
2022/11/11 09:54:38;;;;;;;10.57;9.52;;;;;;;;;;5013796;28;20415;-62
2022/11/11 09:57:13;;;;;;;11.48;10.68;;;;;;;;;;5013907;28;20463;-62
2022/11/11 09:59:54;;;;;;;11.45;10.65;;;;;;;;;;5015947;28;20091;-63
2022/11/11 10:02:39;;;;;;;11.77;10.90;;;;;;;;;;5011862;28;20112;-65
2022/11/11 10:05:09;;;;;;;10.52;9.45;;;;;;;;;;5011941;28;20523;-65
2022/11/11 10:07:38;;;;;;;33.17;10.38;;;;;;;;;;5010995;28;20025;-64
2022/11/11 10:10:16;;;;;;;9.48;8.77;;;;;;;;;;5014527;28;20623;-64
2022/11/11 10:12:48;;;;;;;10.55;9.57;;;;;;;;;;5009836;28;20081;-64
2022/11/11 10:15:14;;;;;;;10.93;10.10;;;;;;;;;;5010950;28;20091;-64
2022/11/11 10:18:31;;;;;;;11.98;11.13;;;;;;;;;;5012524;28;20037;-64
2022/11/11 10:20:57;;;;;;;10.50;9.70;;;;;;;;;;5000292;28;20045;-64
2022/11/11 10:23:31;;;;;;;9.70;9.00;;;;;;;;;;5000749;28;20029;-64
2022/11/11 10:26:12;;;;;;;8.88;8.27;;;;;;;;;;5008171;28;20468;-65
2022/11/11 10:28:42;;;;;;;10.48;9.57;;;;;;;;;;5014816;28;20526;-64
2022/11/11 10:31:17;;;;;;;11.32;10.43;;;;;;;;;;5009898;28;20033;-63
2022/11/11 10:33:54;;;;;;;11.07;10.23;;;;;;;;;;5013660;28;20034;-64
2022/11/11 10:36:23;;;;;;;9.70;8.98;;;;;;;;;;5013630;28;20029;-64
2022/11/11 10:38:57;;;;;;;10.02;9.13;;;;;;;;;;5010074;28;20048;-64
2022/11/11 10:41:45;;;;;;;8.57;7.97;;;;;;;;;;5008834;28;20137;-63
2022/11/11 10:44:32;;;;;;;9.45;8.68;;;;;;;;;;5010839;28;20041;-64
2022/11/11 10:47:04;;;;;;;9.65;8.95;;;;;;;;;;5014473;28;20073;-64
2022/11/11 10:49:34;;;;;;;8.88;8.05;;;;;;;;;;5010364;28;20385;-63
2022/11/11 10:52:19;;;;;;;10.30;9.50;;;;;;;;;;5012974;28;20711;-64
2022/11/11 10:55:09;;;;;;;10.18;9.48;;;;;;;;;;5008658;28;20415;-64
2022/11/11 10:57:47;;;;;;;9.73;9.02;;;;;;;;;;5003778;28;20074;-63
2022/11/11 11:00:14;;;;;;;10.73;9.73;;;;;;;;;;5010419;28;20168;-64
2022/11/11 11:02:50;;;;;;;10.82;10.02;;;;;;;;;;5012864;28;20046;-64
2022/11/11 11:05:28;;;;;;;10.77;9.85;;;;;;;;;;5018791;28;20386;-64
2022/11/11 11:07:57;;;;;;;10.27;9.35;;;;;;;;;;5015744;28;20478;-64
2022/11/11 11:10:33;;;;;;;10.65;9.90;;;;;;;;;;5011594;28;20026;-64
2022/11/11 11:13:15;;;;;;;10.32;9.55;;;;;;;;;;5016718;28;20040;-64
2022/11/11 11:15:48;;;;;;;10.45;9.65;;;;;;;;;;5010323;28;20052;-64
2022/11/11 11:18:15;;;;;;;10.43;9.63;;;;;;;;;;5007708;28;20030;-63
2022/11/11 11:21:01;;;;;;;12.48;11.30;;;;;;;;;;5008074;28;20048;-64
2022/11/11 11:23:41;;;;;;;10.85;9.95;;;;;;;;;;5008142;28;20251;-64
2022/11/11 11:26:09;;;;;;;9.43;8.75;;;;;;;;;;5010523;28;20061;-63
2022/11/11 11:28:51;;;;;;;10.43;9.63;;;;;;;;;;5011646;28;20440;-64
2022/11/11 11:31:33;;;;;;;9.85;8.95;;;;;;;;;;5012042;28;20029;-63
2022/11/11 11:33:59;;;;;;;10.85;9.77;;;;;;;;;;5010093;28;20083;-63
2022/11/11 11:36:24;;;;;;;9.80;9.00;;;;;;;;;;5008944;28;20542;-64
2022/11/11 11:38:49;;;;;;;10.00;9.30;;;;;;;;;;5012966;28;20579;-64
2022/11/11 11:41:17;;;;;;;11.00;10.18;;;;;;;;;;5011334;28;20090;-63
2022/11/11 11:43:44;;;;;;;10.55;9.75;;;;;;;;;;5013204;28;20035;-64
2022/11/11 11:46:25;;;;;;;12.82;10.98;;;;;;;;;;5013054;28;20704;-63
2022/11/11 11:49:25;;;;;;;10.25;9.30;;;;;;;;;;5010866;28;20037;-63
2022/11/11 11:52:04;;;;;;;11.40;10.52;;;;;;;;;;5008110;28;20051;-63
2022/11/11 11:54:51;;;;;;;11.20;10.35;;;;;;;;;;5005617;28;20592;-64
2022/11/11 11:57:42;;;;;;;12.40;11.15;;;;;;;;;;5017656;28;20040;-64
2022/11/11 12:00:18;;;;;;;10.32;9.35;;;;;;;;;;5010511;28;20033;-63
2022/11/11 12:03:04;;;;;;;11.00;10.02;;;;;;;;;;5010143;28;20128;-64
2022/11/11 12:05:41;;;;;;;11.05;10.30;;;;;;;;;;5011714;28;20028;-63
2022/11/11 12:08:25;;;;;;;10.13;9.32;;;;;;;;;;5013599;28;20132;-63
2022/11/11 12:11:03;;;;;;;9.80;9.10;;;;;;;;;;5010153;28;20025;-63
2022/11/11 12:13:46;;;;;;;10.48;9.70;;;;;;;;;;5010797;28;20033;-64
2022/11/11 12:16:57;;;;;;;10.35;9.32;;;;;;;;;;5012954;28;20066;-63
2022/11/11 12:19:35;;;;;;;10.32;9.60;;;;;;;;;;5020442;28;20038;-64
2022/11/11 12:22:12;;;;;;;11.10;10.23;;;;;;;;;;5010638;28;20026;-63
2022/11/11 12:25:08;;;;;;;11.60;10.70;;;;;;;;;;5010318;28;20040;-63
2022/11/11 12:27:42;;;;;;;10.63;9.85;;;;;;;;;;5010884;28;20128;-63
2022/11/11 12:30:13;;;;;;;10.38;9.40;;;;;;;;;;5010988;28;20054;-63
2022/11/11 12:33:08;;;;;;;12.10;11.00;;;;;;;;;;5007012;28;20045;-63
2022/11/11 12:36:00;;;;;;;11.65;10.65;;;;;;;;;;5012857;28;20459;-63
2022/11/11 12:38:37;;;;;;;11.82;10.80;;;;;;;;;;5013624;28;20144;-63
2022/11/11 12:41:21;;;;;;;12.60;10.88;;;;;;;;;;5012596;28;20034;-63
2022/11/11 12:43:57;;;;;;;12.32;11.23;;;;;;;;;;5014695;28;20055;-63
2022/11/11 12:46:59;;;;;;;10.75;9.82;;;;;;;;;;5010536;28;20118;-64
2022/11/11 12:49:55;;;;;;;12.75;11.55;;;;;;;;;;5014839;28;20037;-62
2022/11/11 12:52:37;;;;;;;11.32;10.32;;;;;;;;;;5015800;28;20029;-63
2022/11/11 12:55:11;;;;;;;;;;;;;;;;;;5016412;28;20033;-62
2022/11/11 12:58:00;;;;;;;11.13;10.32;;;;;;;;;;5015879;28;20244;-62
2022/11/11 13:00:26;;;;;;;12.43;11.30;;;;;;;;;;5014024;28;20072;-62
2022/11/11 13:03:16;;;;;;;10.00;9.30;;;;;;;;;;5012812;28;20053;-62
2022/11/11 13:05:44;;;;;;;10.90;10.10;;;;;;;;;;5013090;28;20037;-63
2022/11/11 13:08:47;;;;;;;10.02;9.27;;;;;;;;;;5012292;28;20087;-62
2022/11/11 13:11:43;;;;;;;12.48;11.38;;;;;;;;;;5015349;28;20037;-60
2022/11/11 13:14:17;;;;;;;12.25;10.68;;;;;;;;;;5015620;28;20561;-60
2022/11/11 13:16:42;;;;;;;10.23;9.43;;;;;;;;;;5016072;28;20040;-60
2022/11/11 13:19:28;;;;;;;10.85;10.13;;;;;;;;;;5017252;28;20410;-60
2022/11/11 13:21:58;;;;;;;11.75;10.75;;;;;;;;;;5009838;28;20632;-60
2022/11/11 13:24:23;;;;;;;11.45;10.45;;;;;;;;;;5013712;28;20136;-60
2022/11/11 13:26:55;;;;;;;14.40;12.90;;;;;;;;;;5015840;28;20635;-61
2022/11/11 13:29:51;;;;;;;12.20;11.23;;;;;;;;;;5013763;28;20125;-60
2022/11/11 13:32:21;;;;;;;10.32;9.55;;;;;;;;;;5013563;28;20765;-60
2022/11/11 13:34:48;;;;;;;10.50;9.63;;;;;;;;;;5017986;28;20029;-59
2022/11/11 13:37:28;;;;;;;11.60;10.70;;;;;;;;;;5014403;28;20034;-60
2022/11/11 13:40:06;;;;;;;12.05;10.80;;;;;;;;;;5015412;28;20121;-59
2022/11/11 13:42:41;;;;;;;12.57;11.57;;;;;;;;;;5011780;28;20033;-59
2022/11/11 13:45:20;;;;;;;10.68;9.63;;;;;;;;;;5015744;28;20026;-59
2022/11/11 13:47:46;;;;;;;10.93;10.05;;;;;;;;;;5012948;28;20038;-60
2022/11/11 13:50:34;;;;;;;12.35;11.30;;;;;;;;;;5014349;28;20040;-60
2022/11/11 13:53:12;;;;;;;11.30;10.30;;;;;;;;;;5031624;28;20071;-60
2022/11/11 13:55:41;;;;;;;11.05;10.05;;;;;;;;;;5016315;28;20048;-59
2022/11/11 13:58:38;;;;;;;11.45;10.60;;;;;;;;;;5009096;28;20046;-60
2022/11/11 14:01:09;;;;;;;10.52;9.40;;;;;;;;;;5015693;28;20133;-60
2022/11/11 14:03:59;;;;;;;12.38;11.35;;;;;;;;;;5016059;28;20021;-60
2022/11/11 14:06:34;;;;;;;12.30;11.35;;;;;;;;;;5017160;28;20045;-59
2022/11/11 14:09:01;;;;;;;11.98;10.98;;;;;;;;;;5016564;28;20026;-59
2022/11/11 14:11:35;;;;;;;14.65;11.77;;;;;;;;;;5018178;28;20395;-59
2022/11/11 14:14:31;;;;;;;11.50;10.45;;;;;;;;;;5011621;28;20033;-59
2022/11/11 14:17:00;;;;;;;12.43;11.43;;;;;;;;;;5015879;28;20365;-60
2022/11/11 14:19:27;;;;;;;13.05;11.85;;;;;;;;;;5016156;28;20037;-60
2022/11/11 14:21:58;;;;;;;12.35;11.25;;;;;;;;;;5010861;28;20033;-60
2022/11/11 14:24:36;;;;;;;12.95;11.07;;;;;;;;;;5016562;28;20025;-60
2022/11/11 14:27:27;;;;;;;11.85;10.75;;;;;;;;;;5012179;28;20426;-60
2022/11/11 14:29:54;;;;;;;12.98;11.98;;;;;;;;;;5013767;28;20025;-60
2022/11/11 14:32:47;;;;;;;13.93;12.68;;;;;;;;;;5013709;28;20033;-60
2022/11/11 14:35:25;;;;;;;12.20;11.10;;;;;;;;;;5016160;28;20022;-60
2022/11/11 14:38:10;;;;;;;12.77;11.77;;;;;;;;;;5014115;28;20092;-60
2022/11/11 14:40:36;;;;;;;11.88;10.85;;;;;;;;;;5013998;28;20061;-60
2022/11/11 14:43:30;;;;;;;13.10;12.00;;;;;;;;;;5011355;28;20056;-60
2022/11/11 14:46:00;;;;;;;11.43;10.55;;;;;;;;;;5012163;28;20119;-60
2022/11/11 14:48:53;;;;;;;13.53;12.43;;;;;;;;;;5016523;28;20055;-60
2022/11/11 14:51:48;;;;;;;12.43;11.32;;;;;;;;;;5014331;28;20033;-59
2022/11/11 14:54:27;;;;;;;12.02;11.10;;;;;;;;;;5015018;28;20026;-60
2022/11/11 14:56:57;;;;;;;12.02;11.02;;;;;;;;;;5013884;28;20037;-60
2022/11/11 14:59:25;;;;;;;11.50;10.60;;;;;;;;;;5011276;28;20172;-59
2022/11/11 15:01:54;;;;;;;10.98;10.18;;;;;;;;;;5011782;28;20041;-59
2022/11/11 15:04:19;;;;;;;10.80;9.93;;;;;;;;;;5011903;28;20029;-60
2022/11/11 15:06:58;;;;;;;12.63;11.40;;;;;;;;;;5014117;28;20037;-60
2022/11/11 15:09:44;;;;;;;11.57;10.55;;;;;;;;;;5016065;28;20198;-60
2022/11/11 15:12:27;;;;;;;13.55;11.73;;;;;;;;;;5013764;28;20064;-59
2022/11/11 15:15:08;;;;;;;13.40;12.18;;;;;;;;;;5011044;28;20634;-59
2022/11/11 15:17:52;;;;;;;13.00;11.90;;;;;;;;;;5013361;28;20755;-59
2022/11/11 15:20:51;;;;;;;12.02;11.13;;;;;;;;;;5012865;28;20514;-59
2022/11/11 15:23:27;;;;;;;14.25;12.50;;;;;;;;;;5013036;28;20044;-59
2022/11/11 15:26:07;;;;;;;14.70;12.32;;;;;;;;;;5013058;28;20467;-60
2022/11/11 15:28:39;;;;;;;13.48;12.20;;;;;;;;;;5011656;28;20048;-59
2022/11/11 15:31:40;;;;;;;12.98;11.82;;;;;;;;;;5009930;28;20601;-60
2022/11/11 15:34:39;;;;;;;12.43;11.25;;;;;;;;;;5014663;28;20034;-60
2022/11/11 15:37:09;;;;;;;11.90;10.20;;;;;;;;;;5009847;28;20044;-60
2022/11/11 15:39:43;;;;;;;11.48;10.38;;;;;;;;;;5013936;28;20447;-60
2022/11/11 15:42:21;;;;;;;12.60;11.43;;;;;;;;;;5013308;28;20311;-60
2022/11/11 15:44:46;;;;;;;11.98;10.80;;;;;;;;;;5013592;28;20084;-60
2022/11/11 15:47:15;;;;;;;12.10;10.05;;;;;;;;;;5015193;28;20065;-60
2022/11/11 15:49:48;;;;;;;12.90;11.73;;;;;;;;;;5010452;28;20907;-59
2022/11/11 15:52:22;;;;;;;9.65;8.95;;;;;;;;;;5009014;28;20030;-60
2022/11/11 15:54:49;;;;;;;11.88;10.98;;;;;;;;;;5008582;28;20038;-60
2022/11/11 15:57:34;;;;;;;11.93;10.85;;;;;;;;;;5010901;28;20042;-60
2022/11/11 16:00:02;;;;;;;13.15;11.93;;;;;;;;;;5011070;28;20378;-60
2022/11/11 16:02:32;;;;;;;12.32;11.38;;;;;;;;;;5011657;28;20022;-60
2022/11/11 16:05:03;;;;;;;12.40;11.40;;;;;;;;;;5010920;28;20029;-60
2022/11/11 16:07:34;;;;;;;13.45;11.70;;;;;;;;;;4994455;28;20037;-60
2022/11/11 16:10:08;;;;;;;12.00;11.00;;;;;;;;;;5011849;28;20045;-60
2022/11/11 16:12:54;;;;;;;12.80;11.68;;;;;;;;;;5015432;28;20064;-60
2022/11/11 16:15:44;;;;;;;12.00;11.10;;;;;;;;;;5014714;28;20134;-60